Aeroporto :
LOGIN :

Iscrizione | Disclaimer

   EN    FR    IT 

 










Sommario :    VFR   VFR Marginale   IFR   IFR Intensivo   IFR Molto Intensivo
Visibilità : 
Base nubi : 
>= 8 km
>= 3000ft
5 / 8 km
1000 / 3000 ft
1500m / 5 km
500 / 1000 ft
800 / 1500m
200 / 500 ft
< 800m
< 200 ft
Simboli :   Temporali  Nebbia  Neve Forte  Precipitazioni Forti  Vento > 20 kt
SIGMETs :   Varie  Temporali  Ghiacco  Turbolenza  Onda orograficha  Ceneri Vulcaniche






- Altitudine del aeroporto : 26 ft
- Codice IATA : GLA


EGPF - Glasgow

ULTIMO METAR :
  • 210250Z AUTO 22028KT 9999 -RA SCT036/// BKN044/// //////TCU 06/03 Q1007

METARs OBSOLETI :
  • 210220Z AUTO 22026KT 9999 FEW020 SCT035 06/03 Q1007
  • 210150Z AUTO 22024KT 9999 FEW034 06/03 Q1007
  • 210120Z AUTO 23022KT 9999 BKN029 BKN034 06/03 Q1007
  • 210050Z AUTO 23026KT 9999 BKN025 06/03 Q1007
  • 210020Z AUTO 22030G41KT 9999 BKN020 OVC036 06/03 Q1007

TAF AMD TAF EGPF
Valido dal 21 a 00 ore il 22 a 00 ore UTC


210026Z 2100/2124 22022G32KT 9999 FEW014 SCT025
TEMPO 2100/2124 21032G45KT 6000 RA BKN012
PROB40
TEMPO 2102/2124 3000 RADZ BKN007
PROB30
TEMPO 2119/2122 +RA
BECMG 2121/2124 27022G32KT
ATIS : +44 141 887 7449



MetMap, La meteo Aeronautica in un colpo d'occhio ! - Copyright ORBIFLY Dicembre 2007 - Disclaimer

ORBIFLY MET'MAP TEAM :

Programmazione e sviluppo : Alexandra Zaïnal
Concezione : Baudouin d'Aumeries
Aiuto per la programmazione : Marc-Olivier Méhu
Supporto tecnico e logistico : Manuel Goepfert
Aiuto per la traduzione : Arnaldo La Scala

Contatto : metmap@orbifly.com




FONTI E CREDITI :

   NOAA